createdAt,value
2024-01-10T00:00:40.039Z,95632.00
2024-01-10T00:01:40.087Z,95634.00
2024-01-10T00:02:40.119Z,95629.00
2024-01-10T00:03:40.155Z,95629.00
2024-01-10T00:04:40.230Z,95629.00
2024-01-10T00:05:40.208Z,95629.00
2024-01-10T00:06:40.261Z,95628.00
2024-01-10T00:07:40.778Z,95626.00
2024-01-10T00:08:40.363Z,95628.00
2024-01-10T00:09:40.416Z,95630.00
2024-01-10T00:10:40.474Z,95628.00
2024-01-10T00:11:40.485Z,95629.00
2024-01-10T00:12:40.689Z,95628.00
2024-01-10T00:13:40.572Z,95622.00
2024-01-10T00:14:40.663Z,95622.00
2024-01-10T00:15:40.679Z,95622.00
2024-01-10T00:16:40.801Z,95622.00
2024-01-10T00:17:40.847Z,95624.00
2024-01-10T00:18:40.849Z,95625.00
2024-01-10T00:19:40.891Z,95624.00
2024-01-10T00:20:40.915Z,95627.00
2024-01-10T00:21:40.969Z,95629.00
2024-01-10T00:22:41.068Z,95631.00
2024-01-10T00:23:41.033Z,95631.00
2024-01-10T00:24:41.076Z,95627.00
2024-01-10T00:25:41.208Z,95626.00
2024-01-10T00:26:41.161Z,95627.00
2024-01-10T00:27:41.253Z,95622.00
2024-01-10T00:28:41.317Z,95622.00
2024-01-10T00:29:41.405Z,95628.00
2024-01-10T00:30:41.486Z,95628.00
2024-01-10T00:31:41.499Z,95626.00
2024-01-10T00:32:41.579Z,95624.00
2024-01-10T00:33:41.749Z,95625.00
2024-01-10T00:34:41.734Z,95626.00
2024-01-10T00:35:41.745Z,95626.00
2024-01-10T00:36:41.864Z,95626.00
2024-01-10T00:37:41.915Z,95622.00
2024-01-10T00:38:41.973Z,95623.00
2024-01-10T00:39:42.006Z,95620.00
2024-01-10T00:40:42.116Z,95617.00
2024-01-10T00:41:42.134Z,95616.00
2024-01-10T00:42:42.208Z,95622.00
2024-01-10T00:43:42.342Z,95622.00
2024-01-10T00:44:42.317Z,95618.00
2024-01-10T00:45:42.526Z,95615.00
2024-01-10T00:46:42.469Z,95619.00
2024-01-10T00:47:42.564Z,95620.00
2024-01-10T00:48:42.715Z,95618.00
2024-01-10T00:49:42.703Z,95615.00
2024-01-10T00:50:42.769Z,95614.00
2024-01-10T00:51:42.809Z,95615.00
2024-01-10T00:52:42.927Z,95613.00
2024-01-10T00:53:42.924Z,95612.00
2024-01-10T00:54:42.991Z,95614.00
2024-01-10T00:55:43.067Z,95616.00
2024-01-10T00:56:43.117Z,95617.00
2024-01-10T00:57:43.229Z,95615.00
2024-01-10T00:58:44.211Z,95613.00
2024-01-10T00:59:43.335Z,95613.00
2024-01-10T01:00:43.411Z,95615.00
2024-01-10T01:01:43.486Z,95612.00
2024-01-10T01:02:43.577Z,95611.00
2024-01-10T01:03:43.608Z,95611.00
2024-01-10T01:04:43.749Z,95612.00
2024-01-10T01:05:43.870Z,95614.00
2024-01-10T01:06:43.802Z,95615.00
2024-01-10T01:07:43.868Z,95614.00
2024-01-10T01:08:43.928Z,95612.00
2024-01-10T01:09:43.968Z,95611.00
2024-01-10T01:10:44.098Z,95614.00
2024-01-10T01:11:44.179Z,95610.00
2024-01-10T01:12:44.187Z,95610.00
2024-01-10T01:13:44.298Z,95611.00
2024-01-10T01:14:44.418Z,95613.00
2024-01-10T01:15:44.373Z,95614.00
2024-01-10T01:16:44.439Z,95614.00
2024-01-10T01:17:44.556Z,95619.00
2024-01-10T01:18:44.596Z,95619.00
2024-01-10T01:19:44.622Z,95618.00
2024-01-10T01:20:44.675Z,95617.00
2024-01-10T01:21:44.725Z,95618.00
2024-01-10T01:22:44.801Z,95618.00
2024-01-10T01:23:44.883Z,95617.00
2024-01-10T01:24:44.897Z,95621.00
2024-01-10T01:25:44.970Z,95622.00
2024-01-10T01:26:45.075Z,95626.00
2024-01-10T01:27:45.140Z,95628.00
2024-01-10T01:28:45.200Z,95628.00
2024-01-10T01:29:45.276Z,95627.00
2024-01-10T01:30:45.323Z,95626.00
2024-01-10T01:31:45.388Z,95623.00
2024-01-10T01:32:45.451Z,95622.00
2024-01-10T01:33:45.599Z,95620.00
2024-01-10T01:34:45.622Z,95619.00
2024-01-10T01:35:45.643Z,95624.00
2024-01-10T01:36:45.692Z,95625.00
2024-01-10T01:37:45.790Z,95627.00
2024-01-10T01:38:45.814Z,95624.00
2024-01-10T01:39:45.930Z,95624.00
2024-01-10T01:40:46.016Z,95626.00
2024-01-10T01:41:46.040Z,95631.00
2024-01-10T01:42:46.106Z,95630.00
2024-01-10T01:43:46.230Z,95629.00
2024-01-10T01:44:46.225Z,95630.00
2024-01-10T01:45:46.289Z,95625.00
2024-01-10T01:46:46.348Z,95626.00
2024-01-10T01:47:46.652Z,95628.00
2024-01-10T01:48:46.557Z,95631.00
2024-01-10T01:49:46.628Z,95631.00
2024-01-10T01:50:46.696Z,95634.00
2024-01-10T01:51:46.639Z,95629.00
2024-01-10T01:52:46.775Z,95630.00
2024-01-10T01:53:47.765Z,95629.00
2024-01-10T01:54:46.854Z,95630.00
2024-01-10T01:55:47.753Z,95631.00
2024-01-10T01:56:46.975Z,95634.00
2024-01-10T01:57:47.031Z,95632.00
2024-01-10T01:58:47.165Z,95629.00
2024-01-10T01:59:47.147Z,95626.00
2024-01-10T02:00:47.211Z,95630.00
2024-01-10T02:01:47.371Z,95633.00
2024-01-10T02:02:47.354Z,95638.00
2024-01-10T02:03:47.520Z,95635.00
2024-01-10T02:04:47.531Z,95634.00
2024-01-10T02:05:47.586Z,95636.00
2024-01-10T02:06:47.600Z,95635.00
2024-01-10T02:07:47.681Z,95637.00
2024-01-10T02:08:47.728Z,95636.00
2024-01-10T02:09:47.772Z,95634.00
2024-01-10T02:10:47.858Z,95633.00
2024-01-10T02:11:47.893Z,95637.00
2024-01-10T02:12:47.958Z,95637.00
2024-01-10T02:13:48.078Z,95636.00
2024-01-10T02:14:48.115Z,95636.00
2024-01-10T02:15:48.144Z,95635.00
2024-01-10T02:16:48.273Z,95633.00
2024-01-10T02:17:48.347Z,95635.00
2024-01-10T02:18:48.326Z,95638.00
2024-01-10T02:19:48.386Z,95640.00
2024-01-10T02:20:48.462Z,95642.00
2024-01-10T02:21:48.533Z,95638.00
2024-01-10T02:22:48.612Z,95638.00
2024-01-10T02:23:48.641Z,95641.00
2024-01-10T02:24:48.709Z,95642.00
2024-01-10T02:25:48.777Z,95640.00
2024-01-10T02:26:48.825Z,95637.00
2024-01-10T02:27:48.877Z,95641.00
2024-01-10T02:28:48.945Z,95643.00
2024-01-10T02:29:49.009Z,95644.00
2024-01-10T02:30:49.089Z,95641.00
2024-01-10T02:31:49.216Z,95639.00
2024-01-10T02:32:49.265Z,95641.00
2024-01-10T02:33:49.272Z,95643.00
2024-01-10T02:34:49.323Z,95641.00
2024-01-10T02:35:49.386Z,95641.00
2024-01-10T02:36:49.455Z,95639.00
2024-01-10T02:37:49.544Z,95635.00
2024-01-10T02:38:49.569Z,95633.00
2024-01-10T02:39:49.620Z,95636.00
2024-01-10T02:40:49.724Z,95639.00
2024-01-10T02:41:49.755Z,95639.00
2024-01-10T02:42:49.804Z,95635.00
2024-01-10T02:43:49.928Z,95630.00
2024-01-10T02:44:49.918Z,95630.00
2024-01-10T02:45:49.986Z,95632.00
2024-01-10T02:46:50.042Z,95633.00
2024-01-10T02:47:50.142Z,95632.00
2024-01-10T02:48:50.184Z,95628.00
2024-01-10T02:49:50.214Z,95628.00
2024-01-10T02:50:50.298Z,95624.00
2024-01-10T02:51:50.376Z,95623.00
2024-01-10T02:52:50.837Z,95624.00
2024-01-10T02:53:50.491Z,95620.00
2024-01-10T02:54:50.552Z,95621.00
2024-01-10T02:55:50.643Z,95623.00
2024-01-10T02:56:50.683Z,95624.00
2024-01-10T02:57:50.730Z,95621.00
2024-01-10T02:58:50.821Z,95617.00
2024-01-10T02:59:50.851Z,95615.00
2024-01-10T03:00:50.965Z,95619.00
2024-01-10T03:01:50.970Z,95618.00
2024-01-10T03:02:51.053Z,95619.00
2024-01-10T03:03:51.071Z,95618.00
2024-01-10T03:04:51.152Z,95615.00
2024-01-10T03:05:51.236Z,95613.00
2024-01-10T03:06:51.260Z,95612.00
2024-01-10T03:07:51.338Z,95610.00
2024-01-10T03:08:51.312Z,95608.00
2024-01-10T03:09:51.367Z,95606.00
2024-01-10T03:10:51.451Z,95603.00
2024-01-10T03:11:51.441Z,95603.00
2024-01-10T03:12:51.446Z,95598.00
2024-01-10T03:13:51.518Z,95601.00
2024-01-10T03:14:51.625Z,95602.00
2024-01-10T03:15:51.681Z,95600.00
2024-01-10T03:16:51.764Z,95596.00
2024-01-10T03:17:51.881Z,95594.00
2024-01-10T03:18:51.916Z,95595.00
2024-01-10T03:19:52.000Z,95593.00
2024-01-10T03:20:51.975Z,95593.00
2024-01-10T03:21:52.038Z,95591.00
2024-01-10T03:22:52.189Z,95592.00
2024-01-10T03:23:52.140Z,95591.00
2024-01-10T03:24:52.211Z,95588.00
2024-01-10T03:25:52.294Z,95587.00
2024-01-10T03:26:52.317Z,95591.00
2024-01-10T03:27:52.324Z,95591.00
2024-01-10T03:28:52.444Z,95589.00
2024-01-10T03:29:52.477Z,95582.00
2024-01-10T03:30:52.565Z,95579.00
2024-01-10T03:31:52.548Z,95580.00
2024-01-10T03:32:52.610Z,95581.00
2024-01-10T03:33:52.710Z,95583.00
2024-01-10T03:34:52.716Z,95583.00
2024-01-10T03:35:52.624Z,95584.00
2024-01-10T03:36:52.738Z,95577.00
2024-01-10T03:37:52.785Z,95576.00
2024-01-10T03:38:52.804Z,95578.00
2024-01-10T03:39:52.861Z,95580.00
2024-01-10T03:40:52.903Z,95578.00
2024-01-10T03:41:52.875Z,95574.00
2024-01-10T03:42:52.964Z,95573.00
2024-01-10T03:43:53.016Z,95576.00
2024-01-10T03:44:53.004Z,95578.00
2024-01-10T03:45:53.010Z,95579.00
2024-01-10T03:46:53.126Z,95576.00
2024-01-10T03:47:53.247Z,95579.00
2024-01-10T03:48:53.169Z,95580.00
2024-01-10T03:49:53.308Z,95577.00
2024-01-10T03:50:53.245Z,95583.00
2024-01-10T03:51:53.288Z,95587.00
2024-01-10T03:52:53.366Z,95588.00
2024-01-10T03:53:53.366Z,95586.00
2024-01-10T03:54:53.434Z,95587.00
2024-01-10T03:55:53.485Z,95590.00
2024-01-10T03:56:53.535Z,95589.00
2024-01-10T03:57:53.611Z,95592.00
2024-01-10T03:58:53.655Z,95597.00
2024-01-10T03:59:53.629Z,95599.00
2024-01-10T04:00:53.751Z,95597.00
2024-01-10T04:01:53.761Z,95597.00
2024-01-10T04:02:53.801Z,95602.00
2024-01-10T04:03:53.866Z,95600.00
2024-01-10T04:04:53.938Z,95599.00
2024-01-10T04:05:53.972Z,95598.00
2024-01-10T04:06:53.985Z,95596.00
2024-01-10T04:07:54.057Z,95599.00
2024-01-10T04:08:54.104Z,95601.00
2024-01-10T04:09:54.159Z,95603.00
2024-01-10T04:10:54.211Z,95606.00
2024-01-10T04:11:54.271Z,95611.00
2024-01-10T04:12:54.831Z,95610.00
2024-01-10T04:13:54.355Z,95607.00
2024-01-10T04:14:54.416Z,95609.00
2024-01-10T04:15:54.456Z,95608.00
2024-01-10T04:16:54.478Z,95611.00
2024-01-10T04:17:54.648Z,95613.00
2024-01-10T04:18:54.694Z,95614.00
2024-01-10T04:20:02.422Z,95615.00
2024-01-10T04:21:02.444Z,95617.00
2024-01-10T04:22:02.344Z,95616.00
2024-01-10T04:23:02.401Z,95617.00
2024-01-10T04:24:02.412Z,95617.00
2024-01-10T04:25:02.342Z,95619.00
2024-01-10T04:26:02.449Z,95621.00
2024-01-10T04:27:02.368Z,95623.00
2024-01-10T04:28:02.375Z,95620.00
2024-01-10T04:29:02.399Z,95620.00
2024-01-10T04:30:02.512Z,95617.00
2024-01-10T04:31:10.322Z,95621.00
2024-01-10T04:32:10.274Z,95625.00
2024-01-10T04:33:10.302Z,95624.00
2024-01-10T04:34:10.269Z,95622.00
2024-01-10T04:35:10.249Z,95622.00
2024-01-10T04:36:10.225Z,95625.00
2024-01-10T04:37:10.193Z,95625.00
2024-01-10T04:38:10.273Z,95623.00
2024-01-10T04:39:10.222Z,95622.00
2024-01-10T04:40:10.260Z,95626.00
2024-01-10T04:41:10.288Z,95631.00
2024-01-10T04:42:10.253Z,95631.00
2024-01-10T04:43:10.261Z,95631.00
2024-01-10T04:44:10.275Z,95633.00
2024-01-10T04:45:10.251Z,95632.00
2024-01-10T04:46:10.232Z,95631.00
2024-01-10T04:47:10.264Z,95628.00
2024-01-10T04:48:10.322Z,95631.00
2024-01-10T04:49:10.258Z,95631.00
2024-01-10T04:50:13.718Z,95636.00
2024-01-10T04:51:10.228Z,95633.00
2024-01-10T04:52:10.239Z,95631.00
2024-01-10T04:53:10.330Z,95633.00
2024-01-10T04:54:10.267Z,95634.00
2024-01-10T04:55:10.332Z,95636.00
2024-01-10T04:56:10.233Z,95634.00
2024-01-10T04:57:10.255Z,95636.00
2024-01-10T04:58:10.368Z,95637.00
2024-01-10T04:59:10.241Z,95638.00
2024-01-10T05:00:10.263Z,95635.00
2024-01-10T05:01:10.359Z,95636.00
2024-01-10T05:02:10.313Z,95637.00
2024-01-10T05:03:10.331Z,95638.00
2024-01-10T05:04:10.253Z,95639.00
2024-01-10T05:05:10.402Z,95638.00
2024-01-10T05:06:10.293Z,95638.00
2024-01-10T05:07:10.293Z,95637.00
2024-01-10T05:08:10.330Z,95639.00
2024-01-10T05:09:10.286Z,95641.00
2024-01-10T05:10:10.359Z,95642.00
2024-01-10T05:11:10.562Z,95643.00
2024-01-10T05:12:10.480Z,95643.00
2024-01-10T05:13:10.587Z,95643.00
2024-01-10T05:14:10.691Z,95643.00
2024-01-10T05:15:10.716Z,95644.00
2024-01-10T05:16:10.755Z,95644.00
2024-01-10T05:17:10.914Z,95642.00
2024-01-10T05:18:11.033Z,95641.00
2024-01-10T05:19:11.001Z,95644.00
2024-01-10T05:20:11.054Z,95642.00
2024-01-10T05:21:11.208Z,95644.00
2024-01-10T05:22:11.197Z,95647.00
2024-01-10T05:23:11.291Z,95650.00
2024-01-10T05:24:11.309Z,95652.00
2024-01-10T05:25:11.349Z,95650.00
2024-01-10T05:26:11.539Z,95651.00
2024-01-10T05:27:11.478Z,95652.00
2024-01-10T05:28:11.537Z,95651.00
2024-01-10T05:29:11.681Z,95653.00
2024-01-10T05:30:11.705Z,95654.00
2024-01-10T05:31:11.817Z,95655.00
2024-01-10T05:32:11.844Z,95661.00
2024-01-10T05:33:12.008Z,95662.00
2024-01-10T05:34:11.983Z,95663.00
2024-01-10T05:35:12.148Z,95664.00
2024-01-10T05:36:12.093Z,95663.00
2024-01-10T05:37:12.153Z,95663.00
2024-01-10T05:38:12.247Z,95665.00
2024-01-10T05:39:12.271Z,95668.00
2024-01-10T05:40:12.308Z,95667.00
2024-01-10T05:41:12.504Z,95668.00
2024-01-10T05:42:12.492Z,95666.00
2024-01-10T05:43:12.571Z,95669.00
2024-01-10T05:44:12.643Z,95669.00
2024-01-10T05:45:12.694Z,95670.00
2024-01-10T05:46:12.748Z,95668.00
2024-01-10T05:47:12.848Z,95671.00
2024-01-10T05:48:13.086Z,95672.00
2024-01-10T05:49:13.019Z,95673.00
2024-01-10T05:50:13.042Z,95673.00
2024-01-10T05:51:13.139Z,95674.00
2024-01-10T05:52:13.179Z,95673.00
2024-01-10T05:53:13.392Z,95673.00
2024-01-10T05:54:13.296Z,95673.00
2024-01-10T05:55:13.365Z,95671.00
2024-01-10T05:56:13.518Z,95672.00
2024-01-10T05:57:13.554Z,95672.00
2024-01-10T05:58:13.575Z,95673.00
2024-01-10T05:59:13.723Z,95671.00
2024-01-10T06:00:13.660Z,95670.00
2024-01-10T06:01:13.973Z,95671.00
2024-01-10T06:02:13.877Z,95674.00
2024-01-10T06:03:13.927Z,95676.00
2024-01-10T06:04:13.919Z,95673.00
2024-01-10T06:05:14.028Z,95668.00
2024-01-10T06:06:14.072Z,95670.00
2024-01-10T06:07:14.176Z,95671.00
2024-01-10T06:08:14.237Z,95674.00
2024-01-10T06:09:14.266Z,95675.00
2024-01-10T06:10:14.319Z,95675.00
2024-01-10T06:11:14.498Z,95672.00
2024-01-10T06:12:14.497Z,95677.00
2024-01-10T06:13:14.537Z,95673.00
2024-01-10T06:14:14.636Z,95670.00
2024-01-10T06:15:14.673Z,95672.00
2024-01-10T06:16:14.764Z,95670.00
2024-01-10T06:17:14.869Z,95670.00
2024-01-10T06:18:14.976Z,95671.00
2024-01-10T06:19:15.022Z,95671.00
2024-01-10T06:20:15.228Z,95673.00
2024-01-10T06:21:15.192Z,95674.00
2024-01-10T06:22:15.091Z,95672.00
2024-01-10T06:23:15.271Z,95673.00
2024-01-10T06:24:15.270Z,95672.00
2024-01-10T06:25:15.333Z,95675.00
2024-01-10T06:26:15.506Z,95676.00
2024-01-10T06:27:16.357Z,95678.00
2024-01-10T06:28:15.556Z,95679.00
2024-01-10T06:29:15.663Z,95684.00
2024-01-10T06:30:15.734Z,95688.00
2024-01-10T06:31:15.869Z,95685.00
2024-01-10T06:32:15.930Z,95692.00
2024-01-10T06:33:15.919Z,95685.00
2024-01-10T06:34:16.158Z,95684.00
2024-01-10T06:35:16.091Z,95693.00
2024-01-10T06:36:16.080Z,95695.00
2024-01-10T06:37:16.364Z,95691.00
2024-01-10T06:38:16.332Z,95695.00
2024-01-10T06:39:16.379Z,95693.00
2024-01-10T06:40:16.356Z,95696.00
2024-01-10T06:41:16.602Z,95700.00
2024-01-10T06:42:16.456Z,95697.00
2024-01-10T06:43:16.575Z,95705.00
2024-01-10T06:44:16.651Z,95707.00
2024-01-10T06:45:16.690Z,95702.00
2024-01-10T06:46:16.736Z,95700.00
2024-01-10T06:47:16.845Z,95699.00
2024-01-10T06:48:16.940Z,95703.00
2024-01-10T06:49:16.967Z,95705.00
2024-01-10T06:50:17.058Z,95707.00
2024-01-10T06:51:17.040Z,95710.00
2024-01-10T06:52:17.107Z,95714.00
2024-01-10T06:53:17.432Z,95706.00
2024-01-10T06:54:17.217Z,95707.00
2024-01-10T06:55:17.276Z,95709.00
2024-01-10T06:56:17.350Z,95710.00
2024-01-10T06:57:17.457Z,95713.00
2024-01-10T06:58:17.518Z,95716.00
2024-01-10T06:59:17.608Z,95711.00
2024-01-10T07:00:17.599Z,95708.00
2024-01-10T07:01:17.694Z,95713.00
2024-01-10T07:02:17.827Z,95717.00
2024-01-10T07:03:17.838Z,95720.00
2024-01-10T07:04:20.139Z,95713.00
2024-01-10T07:05:17.922Z,95709.00
2024-01-10T07:06:17.883Z,95711.00
2024-01-10T07:07:17.813Z,95713.00
2024-01-10T07:08:17.853Z,95713.00
2024-01-10T07:09:17.842Z,95713.00
2024-01-10T07:10:17.887Z,95713.00
2024-01-10T07:11:17.863Z,95715.00
2024-01-10T07:12:17.864Z,95716.00
2024-01-10T07:13:17.865Z,95714.00
2024-01-10T07:14:17.907Z,95714.00
2024-01-10T07:15:17.831Z,95714.00
2024-01-10T07:16:17.833Z,95714.00
2024-01-10T07:17:17.879Z,95715.00
2024-01-10T07:18:17.905Z,95719.00
2024-01-10T07:19:17.887Z,95720.00
2024-01-10T07:20:17.929Z,95720.00
2024-01-10T07:21:17.867Z,95720.00
2024-01-10T07:22:17.841Z,95722.00
2024-01-10T07:23:17.945Z,95723.00
2024-01-10T07:24:18.015Z,95724.00
2024-01-10T07:25:17.865Z,95729.00
2024-01-10T07:26:18.015Z,95725.00
2024-01-10T07:27:17.871Z,95725.00
2024-01-10T07:28:17.905Z,95724.00
2024-01-10T07:29:17.914Z,95724.00
2024-01-10T07:30:18.002Z,95723.00
2024-01-10T07:31:17.903Z,95724.00
2024-01-10T07:32:17.993Z,95723.00
2024-01-10T07:33:18.072Z,95728.00
2024-01-10T07:34:18.072Z,95730.00
2024-01-10T07:35:17.930Z,95729.00
2024-01-10T07:36:17.881Z,95728.00
2024-01-10T07:37:17.888Z,95728.00
2024-01-10T07:38:17.958Z,95729.00
2024-01-10T07:39:17.895Z,95733.00
2024-01-10T07:40:17.923Z,95739.00
2024-01-10T07:41:18.000Z,95733.00
2024-01-10T07:42:18.021Z,95734.00
2024-01-10T07:43:18.064Z,95735.00
2024-01-10T07:44:18.189Z,95735.00
2024-01-10T07:45:18.193Z,95733.00
2024-01-10T07:46:18.258Z,95736.00
2024-01-10T07:47:18.353Z,95736.00
2024-01-10T07:48:18.435Z,95737.00
2024-01-10T07:49:18.455Z,95740.00
2024-01-10T07:50:18.556Z,95747.00
2024-01-10T07:51:18.555Z,95753.00
2024-01-10T07:52:19.041Z,95746.00
2024-01-10T07:53:18.981Z,95747.00
2024-01-10T07:54:18.787Z,95748.00
2024-01-10T07:55:18.797Z,95750.00
2024-01-10T07:56:18.901Z,95753.00
2024-01-10T07:57:18.942Z,95752.00
2024-01-10T07:58:19.006Z,95757.00
2024-01-10T07:59:19.144Z,95758.00
2024-01-10T08:00:19.123Z,95754.00
2024-01-10T08:01:19.248Z,95753.00
2024-01-10T08:02:19.326Z,95754.00
2024-01-10T08:03:19.430Z,95760.00
2024-01-10T08:04:19.421Z,95758.00
2024-01-10T08:05:19.528Z,95760.00
2024-01-10T08:06:24.215Z,95761.00
2024-01-10T08:07:20.514Z,95768.00
2024-01-10T08:08:20.429Z,95761.00
2024-01-10T08:09:19.521Z,95760.00
2024-01-10T08:10:19.541Z,95762.00
2024-01-10T08:11:19.585Z,95762.00
2024-01-10T08:12:19.526Z,95763.00
2024-01-10T08:13:19.925Z,95764.00
2024-01-10T08:14:19.670Z,95764.00
2024-01-10T08:15:19.597Z,95765.00
2024-01-10T08:16:19.654Z,95765.00
2024-01-10T08:17:19.706Z,95767.00
2024-01-10T08:18:19.957Z,95764.00
2024-01-10T08:19:19.912Z,95765.00
2024-01-10T08:20:19.957Z,95762.00
2024-01-10T08:21:19.986Z,95764.00
2024-01-10T08:22:20.013Z,95768.00
2024-01-10T08:23:20.461Z,95768.00
2024-01-10T08:24:20.167Z,95770.00
2024-01-10T08:25:20.299Z,95769.00
2024-01-10T08:26:20.341Z,95771.00
2024-01-10T08:27:20.334Z,95768.00
2024-01-10T08:28:20.412Z,95772.00
2024-01-10T08:29:20.609Z,95774.00
2024-01-10T08:30:20.551Z,95776.00
2024-01-10T08:31:20.634Z,95778.00
2024-01-10T08:32:20.664Z,95779.00
2024-01-10T08:33:20.972Z,95774.00
2024-01-10T08:34:20.810Z,95774.00
2024-01-10T08:35:20.827Z,95773.00
2024-01-10T08:36:20.875Z,95773.00
2024-01-10T08:37:20.920Z,95774.00
2024-01-10T08:38:21.490Z,95776.00
2024-01-10T08:39:21.110Z,95779.00
2024-01-10T08:40:21.116Z,95781.00
2024-01-10T08:41:21.175Z,95780.00
2024-01-10T08:42:21.231Z,95779.00
2024-01-10T08:43:21.271Z,95785.00
2024-01-10T08:44:21.403Z,95789.00
2024-01-10T08:45:21.507Z,95790.00
2024-01-10T08:46:21.418Z,95784.00
2024-01-10T08:47:21.559Z,95789.00
2024-01-10T08:48:21.686Z,95794.00
2024-01-10T08:49:21.686Z,95790.00
2024-01-10T08:50:21.764Z,95793.00
2024-01-10T08:51:21.742Z,95790.00
2024-01-10T08:52:21.811Z,95800.00
2024-01-10T08:53:21.942Z,95797.00
2024-01-10T08:54:21.906Z,95792.00
2024-01-10T08:55:21.991Z,95793.00
2024-01-10T08:56:22.070Z,95792.00
2024-01-10T08:57:22.103Z,95797.00
2024-01-10T08:58:22.401Z,95801.00
2024-01-10T08:59:22.223Z,95801.00
2024-01-10T09:00:22.221Z,95799.00
2024-01-10T09:01:22.331Z,95796.00
2024-01-10T09:02:22.494Z,95796.00
2024-01-10T09:03:22.441Z,95801.00
2024-01-10T09:04:22.368Z,95796.00
2024-01-10T09:05:22.449Z,95796.00
2024-01-10T09:06:22.532Z,95796.00
2024-01-10T09:07:22.572Z,95798.00
2024-01-10T09:08:22.517Z,95803.00
2024-01-10T09:09:22.577Z,95801.00
2024-01-10T09:10:22.479Z,95801.00
2024-01-10T09:11:22.516Z,95800.00
2024-01-10T09:12:22.933Z,95802.00
2024-01-10T09:13:22.533Z,95810.00
2024-01-10T09:14:22.678Z,95802.00
2024-01-10T09:15:22.591Z,95800.00
2024-01-10T09:16:22.619Z,95797.00
2024-01-10T09:17:22.709Z,95801.00
2024-01-10T09:18:22.871Z,95804.00
2024-01-10T09:19:22.968Z,95801.00
2024-01-10T09:20:23.051Z,95800.00
2024-01-10T09:21:22.990Z,95799.00
2024-01-10T09:22:23.060Z,95800.00
2024-01-10T09:23:23.176Z,95799.00
2024-01-10T09:24:29.040Z,95800.00
2024-01-10T09:25:24.137Z,95801.00
2024-01-10T09:26:23.240Z,95801.00
2024-01-10T09:27:23.195Z,95803.00
2024-01-10T09:28:23.435Z,95807.00
2024-01-10T09:29:23.290Z,95807.00
2024-01-10T09:30:23.250Z,95807.00
2024-01-10T09:31:23.170Z,95805.00
2024-01-10T09:32:23.252Z,95806.00
2024-01-10T09:33:23.302Z,95811.00
2024-01-10T09:34:23.332Z,95811.00
2024-01-10T09:35:23.261Z,95807.00
2024-01-10T09:36:23.280Z,95807.00
2024-01-10T09:37:23.292Z,95811.00
2024-01-10T09:38:23.505Z,95809.00
2024-01-10T09:39:24.033Z,95820.00
2024-01-10T09:40:23.481Z,95811.00
2024-01-10T09:41:23.525Z,95810.00
2024-01-10T09:42:23.523Z,95820.00
2024-01-10T09:43:24.032Z,95816.00
2024-01-10T09:44:23.970Z,95820.00
2024-01-10T09:45:23.694Z,95822.00
2024-01-10T09:46:23.707Z,95823.00
2024-01-10T09:47:23.907Z,95820.00
2024-01-10T09:48:23.914Z,95814.00
2024-01-10T09:49:24.489Z,95824.00
2024-01-10T09:50:23.940Z,95817.00
2024-01-10T09:51:23.975Z,95817.00
2024-01-10T09:52:24.031Z,95812.00
2024-01-10T09:53:24.465Z,95808.00
2024-01-10T09:54:24.178Z,95813.00
2024-01-10T09:55:25.692Z,95808.00
2024-01-10T09:56:24.385Z,95812.00
2024-01-10T09:57:24.349Z,95809.00
2024-01-10T09:58:24.415Z,95804.00
2024-01-10T09:59:24.562Z,95806.00
2024-01-10T10:00:24.551Z,95806.00
2024-01-10T10:01:24.686Z,95804.00
2024-01-10T10:02:25.020Z,95805.00
2024-01-10T10:03:24.829Z,95802.00
2024-01-10T10:04:24.990Z,95801.00
2024-01-10T10:05:25.231Z,95800.00
2024-01-10T10:06:25.109Z,95802.00
2024-01-10T10:07:25.052Z,95803.00
2024-01-10T10:08:25.128Z,95801.00
2024-01-10T10:09:25.117Z,95799.00
2024-01-10T10:10:25.244Z,95797.00
2024-01-10T10:11:25.420Z,95797.00
2024-01-10T10:12:25.288Z,95796.00
2024-01-10T10:13:25.453Z,95795.00
2024-01-10T10:14:25.494Z,95790.00
2024-01-10T10:15:25.502Z,95786.00
2024-01-10T10:16:25.498Z,95789.00
2024-01-10T10:17:25.643Z,95793.00
2024-01-10T10:18:25.527Z,95794.00
2024-01-10T10:19:34.477Z,95790.00
2024-01-10T10:20:26.626Z,95784.00
2024-01-10T10:21:25.565Z,95781.00
2024-01-10T10:22:25.618Z,95784.00
2024-01-10T10:23:25.844Z,95784.00
2024-01-10T10:24:27.267Z,95785.00
2024-01-10T10:25:25.785Z,95787.00
2024-01-10T10:26:25.918Z,95785.00
2024-01-10T10:27:25.912Z,95788.00
2024-01-10T10:28:32.363Z,95781.00
2024-01-10T10:29:27.054Z,95782.00
2024-01-10T10:30:26.025Z,95781.00
2024-01-10T10:31:25.990Z,95781.00
2024-01-10T10:32:26.053Z,95782.00
2024-01-10T10:33:26.157Z,95779.00
2024-01-10T10:34:26.117Z,95779.00
2024-01-10T10:35:36.145Z,95779.00
2024-01-10T10:36:27.001Z,95788.00
2024-01-10T10:37:26.042Z,95783.00
2024-01-10T10:38:26.118Z,95784.00
2024-01-10T10:39:26.068Z,95783.00
2024-01-10T10:40:25.997Z,95783.00
2024-01-10T10:41:26.028Z,95782.00
2024-01-10T10:42:26.028Z,95780.00
2024-01-10T10:43:26.031Z,95780.00
2024-01-10T10:44:26.152Z,95782.00
2024-01-10T10:45:26.036Z,95788.00
2024-01-10T10:46:26.741Z,95788.00
2024-01-10T10:47:26.135Z,95783.00
2024-01-10T10:48:26.280Z,95784.00
2024-01-10T10:49:26.567Z,95781.00
2024-01-10T10:50:26.263Z,95783.00
2024-01-10T10:51:26.350Z,95782.00
2024-01-10T10:52:26.406Z,95778.00
2024-01-10T10:53:26.590Z,95779.00
2024-01-10T10:54:26.474Z,95779.00
2024-01-10T10:55:26.521Z,95780.00
2024-01-10T10:56:26.670Z,95781.00
2024-01-10T10:57:26.623Z,95777.00
2024-01-10T10:58:26.699Z,95779.00
2024-01-10T10:59:26.871Z,95777.00
2024-01-10T11:00:26.749Z,95775.00
2024-01-10T11:01:26.871Z,95775.00
2024-01-10T11:02:30.342Z,95774.00
2024-01-10T11:03:27.876Z,95773.00
2024-01-10T11:04:26.915Z,95771.00
2024-01-10T11:05:27.278Z,95772.00
2024-01-10T11:06:26.899Z,95770.00
2024-01-10T11:07:26.963Z,95770.00
2024-01-10T11:08:26.888Z,95772.00
2024-01-10T11:09:26.896Z,95777.00
2024-01-10T11:10:26.859Z,95776.00
2024-01-10T11:11:26.938Z,95773.00
2024-01-10T11:12:26.845Z,95775.00
2024-01-10T11:13:26.858Z,95773.00
2024-01-10T11:14:26.995Z,95770.00
2024-01-10T11:15:26.843Z,95767.00
2024-01-10T11:16:26.891Z,95767.00
2024-01-10T11:17:26.932Z,95764.00
2024-01-10T11:18:26.939Z,95764.00
2024-01-10T11:19:26.944Z,95764.00
2024-01-10T11:20:27.085Z,95762.00
2024-01-10T11:21:27.077Z,95764.00
2024-01-10T11:22:27.168Z,95764.00
2024-01-10T11:23:27.286Z,95764.00
2024-01-10T11:24:27.309Z,95763.00
2024-01-10T11:25:27.329Z,95765.00
2024-01-10T11:26:27.508Z,95764.00
2024-01-10T11:27:27.473Z,95761.00
2024-01-10T11:28:27.592Z,95760.00
2024-01-10T11:29:27.698Z,95761.00
2024-01-10T11:30:28.042Z,95761.00
2024-01-10T11:31:27.706Z,95762.00
2024-01-10T11:32:27.908Z,95762.00
2024-01-10T11:33:27.940Z,95762.00
2024-01-10T11:34:28.191Z,95762.00
2024-01-10T11:35:28.049Z,95759.00
2024-01-10T11:36:28.104Z,95757.00
2024-01-10T11:37:28.122Z,95758.00
2024-01-10T11:38:28.302Z,95755.00
2024-01-10T11:39:28.251Z,95755.00
2024-01-10T11:40:28.329Z,95753.00
2024-01-10T11:41:28.472Z,95755.00
2024-01-10T11:42:28.476Z,95752.00
2024-01-10T11:43:28.489Z,95749.00
2024-01-10T11:44:28.774Z,95750.00
2024-01-10T11:45:28.534Z,95746.00